Time;durP1;ratioP1;P1;durP2;ratioP2;P2;SDS_P1;SDS_P2;PMS_P1;PMS_P2;Temp;Humidity;BMP_temperature;BMP_pressure;BME280_temperature;BME280_humidity;BME280_pressure;Samples;Min_cycle;Max_cycle;Signal;HPM_P1;HPM_P2
2022/11/03 00:01:34;;;;;;;4.45;1.00;;;26.30;95.80;;;;;;5044046;28;20080;-47
2022/11/03 00:04:00;;;;;;;6.47;0.98;;;26.30;95.90;;;;;;5043721;28;20083;-50
2022/11/03 00:06:27;;;;;;;3.80;0.70;;;26.30;95.90;;;;;;5044081;28;20210;-51
2022/11/03 00:08:57;;;;;;;1.95;0.70;;;26.30;95.80;;;;;;5047164;28;20027;-39
2022/11/03 00:11:24;;;;;;;7.95;1.20;;;26.30;95.80;;;;;;5064019;28;20025;-37
2022/11/03 00:13:50;;;;;;;3.85;0.73;;;26.30;95.80;;;;;;5053192;28;20071;-37
2022/11/03 00:16:17;;;;;;;1.45;0.55;;;26.10;95.90;;;;;;5043903;28;20025;-36
2022/11/03 00:18:43;;;;;;;3.08;0.80;;;26.10;96.10;;;;;;5044012;28;20268;-44
2022/11/03 00:21:12;;;;;;;3.20;1.00;;;26.10;96.10;;;;;;5042913;28;20271;-43
2022/11/03 00:23:43;;;;;;;3.63;0.82;;;26.10;96.30;;;;;;5042684;28;20017;-39
2022/11/03 00:26:17;;;;;;;1.52;0.70;;;26.00;96.30;;;;;;5042450;28;20201;-45
2022/11/03 00:28:45;;;;;;;3.35;1.00;;;26.00;96.20;;;;;;5042513;28;20014;-37
2022/11/03 00:31:17;;;;;;;2.63;1.30;;;25.90;96.20;;;;;;5040316;28;20034;-43
2022/11/03 00:33:44;;;;;;;2.33;1.15;;;25.90;96.40;;;;;;5042535;28;20010;-43
2022/11/03 00:36:14;;;;;;;3.80;1.38;;;25.90;96.40;;;;;;5040544;28;20065;-38
2022/11/03 00:38:41;;;;;;;3.45;1.35;;;25.90;96.40;;;;;;5043038;28;20397;-45
2022/11/03 00:41:09;;;;;;;4.20;1.67;;;26.00;96.50;;;;;;5043722;28;20324;-42
2022/11/03 00:43:36;;;;;;;4.22;1.23;;;25.90;96.50;;;;;;5043431;28;20220;-40
2022/11/03 00:46:05;;;;;;;3.83;1.40;;;25.90;96.50;;;;;;5043491;28;20065;-41
2022/11/03 00:48:32;;;;;;;3.75;1.35;;;25.90;96.60;;;;;;5046291;28;20017;-38
2022/11/03 00:51:13;;;;;;;2.80;1.25;;;25.90;96.50;;;;;;5043060;28;20010;-44
2022/11/03 00:53:42;;;;;;;3.20;1.15;;;25.90;96.60;;;;;;5029612;28;20204;-39
2022/11/03 00:56:18;;;;;;;3.88;1.10;;;25.90;96.60;;;;;;5042998;28;20022;-46
2022/11/03 00:58:46;;;;;;;3.75;1.00;;;25.90;96.60;;;;;;5042515;28;20034;-42
2022/11/03 01:01:15;;;;;;;3.50;1.40;;;25.90;96.60;;;;;;5041552;28;20021;-41
2022/11/03 01:06:53;;;;;;;2.83;1.25;;;26.00;96.50;;;;;;5043144;28;20044;-43
2022/11/03 01:09:33;;;;;;;2.40;1.00;;;26.00;96.50;;;;;;5042928;28;20057;-41
2022/11/03 01:12:02;;;;;;;4.18;1.40;;;26.00;96.40;;;;;;5042656;28;20021;-41
2022/11/03 01:14:50;;;;;;;7.55;1.17;;;26.10;96.30;;;;;;5045940;28;20057;-39
2022/11/03 01:17:25;;;;;;;4.15;0.90;;;26.10;96.30;;;;;;5047314;28;20036;-45
2022/11/03 01:19:51;;;;;;;4.57;2.05;;;26.10;96.30;;;;;;5046849;28;20399;-41
2022/11/03 01:22:21;;;;;;;3.17;1.23;;;26.10;96.20;;;;;;5047095;28;20029;-40
2022/11/03 01:24:48;;;;;;;1.95;0.90;;;26.10;96.20;;;;;;5046816;28;20076;-39
2022/11/03 01:27:19;;;;;;;2.65;0.90;;;26.10;96.20;;;;;;5046727;28;20360;-41
2022/11/03 01:29:46;;;;;;;4.13;0.80;;;26.10;96.20;;;;;;5046758;28;20101;-46
2022/11/03 01:32:13;;;;;;;2.17;0.77;;;26.10;96.20;;;;;;5046934;28;20045;-39
2022/11/03 01:34:40;;;;;;;4.38;0.80;;;26.10;96.10;;;;;;5047724;28;20040;-42
2022/11/03 01:37:07;;;;;;;4.97;1.00;;;26.20;96.10;;;;;;5058651;28;20053;-42
2022/11/03 01:39:33;;;;;;;3.33;0.70;;;26.20;96.30;;;;;;5046984;28;20035;-50
2022/11/03 01:42:00;;;;;;;5.05;0.63;;;26.10;96.20;;;;;;5047324;28;20064;-47
2022/11/03 01:44:33;;;;;;;3.42;0.77;;;26.10;96.30;;;;;;5046591;28;20225;-45
2022/11/03 01:47:25;;;;;;;1.80;0.70;;;26.20;96.30;;;;;;5045970;28;20191;-47
2022/11/03 01:50:17;;;;;;;2.00;0.75;;;26.20;96.40;;;;;;5038771;28;20025;-42
2022/11/03 01:52:53;;;;;;;2.43;0.80;;;26.20;96.30;;;;;;5050880;28;20084;-41
2022/11/03 01:55:26;;;;;;;3.53;0.95;;;26.20;96.40;;;;;;5047137;28;20041;-46
2022/11/03 01:57:58;;;;;;;4.25;0.95;;;26.10;96.30;;;;;;5046752;28;20029;-43
2022/11/03 02:00:24;;;;;;;3.97;0.88;;;26.20;96.30;;;;;;5046310;28;20037;-40
2022/11/03 02:02:51;;;;;;;3.67;0.70;;;26.20;96.30;;;;;;5046636;28;20021;-38
2022/11/03 02:05:19;;;;;;;5.07;0.90;;;26.20;96.40;;;;;;5046252;28;20040;-39
2022/11/03 02:08:21;;;;;;;2.38;0.70;;;26.20;96.30;;;;;;5046140;28;20032;-43
2022/11/03 02:10:48;;;;;;;2.47;0.53;;;26.20;96.30;;;;;;5045703;28;20063;-42
2022/11/03 02:13:21;;;;;;;4.05;0.80;;;26.20;96.30;;;;;;5045862;28;20340;-51
2022/11/03 02:15:49;;;;;;;;;;;26.20;96.30;;;;;;5041766;28;20385;-45
2022/11/03 02:18:18;;;;;;;2.53;0.65;;;26.20;96.30;;;;;;5045689;28;19909;-43
2022/11/03 02:20:54;;;;;;;2.65;0.70;;;26.10;96.30;;;;;;5056151;28;20209;-47
2022/11/03 02:23:36;;;;;;;2.25;0.70;;;26.10;96.30;;;;;;5065410;28;20032;-45
2022/11/03 02:26:02;;;;;;;1.52;0.85;;;26.10;96.40;;;;;;5059172;28;20045;-42
2022/11/03 02:28:31;;;;;;;3.53;0.90;;;26.10;96.30;;;;;;5045864;28;20021;-42
2022/11/03 02:31:10;;;;;;;4.22;1.23;;;26.10;96.30;;;;;;5043914;28;20037;-39
2022/11/03 02:33:48;;;;;;;4.55;1.42;;;26.10;96.30;;;;;;5045267;28;20209;-39
2022/11/03 02:36:24;;;;;;;4.93;2.30;;;26.10;96.30;;;;;;5045214;28;20045;-37
2022/11/03 02:39:04;;;;;;;5.90;2.45;;;26.10;96.30;;;;;;5045358;28;20045;-44
2022/11/03 02:41:36;;;;;;;3.33;1.70;;;26.10;96.30;;;;;;5045639;28;20037;-47
2022/11/03 02:44:04;;;;;;;3.33;1.50;;;26.20;96.30;;;;;;5045435;28;20017;-51
2022/11/03 02:46:33;;;;;;;6.00;1.80;;;26.10;96.30;;;;;;5045327;28;20171;-45
2022/11/03 02:48:59;;;;;;;4.80;1.25;;;26.10;96.30;;;;;;5045342;28;20013;-43
2022/11/03 02:51:26;;;;;;;5.55;1.42;;;26.10;96.30;;;;;;5045025;28;20056;-40
2022/11/03 02:54:16;;;;;;;2.78;1.10;;;26.10;96.30;;;;;;5045217;28;20033;-42
2022/11/03 02:56:51;;;;;;;2.70;1.15;;;26.10;96.30;;;;;;5045514;28;20213;-52
2022/11/03 02:59:26;;;;;;;3.72;1.10;;;26.10;96.30;;;;;;5045275;28;20093;-48
2022/11/03 03:02:08;;;;;;;5.80;1.10;;;26.10;96.30;;;;;;5045165;28;20040;-42
2022/11/03 03:04:41;;;;;;;1.83;0.85;;;26.10;96.30;;;;;;5056411;28;20024;-42
2022/11/03 03:07:21;;;;;;;2.45;0.70;;;26.10;96.40;;;;;;5064745;28;20032;-43
2022/11/03 03:10:07;;;;;;;2.92;0.75;;;26.10;96.40;;;;;;5039915;28;20025;-44
2022/11/03 03:12:36;;;;;;;2.25;0.65;;;26.10;96.40;;;;;;5025408;28;20297;-41
2022/11/03 03:15:06;;;;;;;3.42;0.70;;;26.10;96.30;;;;;;5025017;28;20113;-42
2022/11/03 03:17:56;;;;;;;2.75;0.60;;;26.10;96.30;;;;;;5025235;28;20026;-43
2022/11/03 03:20:24;;;;;;;4.10;0.65;;;26.10;96.20;;;;;;5024737;28;20329;-40
2022/11/03 03:23:02;;;;;;;5.15;0.60;;;26.10;96.20;;;;;;5025208;28;20033;-44
2022/11/03 03:25:35;;;;;;;2.72;0.85;;;26.10;96.20;;;;;;5024855;28;20195;-43
2022/11/03 03:28:14;;;;;;;3.78;0.73;;;26.10;96.20;;;;;;5031334;28;20327;-41
2022/11/03 03:30:44;;;;;;;3.30;0.77;;;26.10;96.30;;;;;;5024510;28;20069;-41
2022/11/03 03:33:11;;;;;;;4.50;0.82;;;26.10;96.30;;;;;;5025235;28;20302;-45
2022/11/03 03:35:41;;;;;;;2.30;0.70;;;26.00;96.20;;;;;;5023262;28;20361;-46
2022/11/03 03:38:14;;;;;;;2.50;0.80;;;26.10;96.30;;;;;;5024249;28;20096;-42
2022/11/03 03:40:45;;;;;;;5.05;0.70;;;26.10;96.30;;;;;;5024696;28;20041;-41
2022/11/03 03:43:14;;;;;;;1.35;0.50;;;26.10;96.30;;;;;;5024662;28;20404;-45
2022/11/03 03:45:44;;;;;;;2.58;0.85;;;26.10;96.30;;;;;;5024658;28;20317;-44
2022/11/03 03:48:12;;;;;;;3.78;0.50;;;26.10;96.30;;;;;;5024427;28;20043;-45
2022/11/03 03:50:41;;;;;;;3.05;0.60;;;26.10;96.30;;;;;;5024534;28;20249;-39
2022/11/03 03:53:11;;;;;;;4.30;0.93;;;26.10;96.30;;;;;;5024801;28;20072;-47
2022/11/03 03:55:45;;;;;;;5.97;0.70;;;26.10;96.20;;;;;;5024482;28;20034;-48
2022/11/03 03:58:13;;;;;;;3.25;0.50;;;26.10;96.30;;;;;;5024421;28;20029;-41
2022/11/03 04:00:41;;;;;;;3.40;0.60;;;26.10;96.30;;;;;;5050168;28;20075;-38
2022/11/03 04:03:17;;;;;;;3.30;0.70;;;26.10;96.30;;;;;;5044149;28;20035;-42
2022/11/03 04:05:44;;;;;;;6.40;0.40;;;26.00;96.20;;;;;;5043876;28;20032;-40
2022/11/03 04:08:17;;;;;;;1.35;0.52;;;26.00;96.30;;;;;;5043901;28;20219;-38
2022/11/03 04:22:15;;;;;;;2.75;0.60;;;26.00;96.30;;;;;;5043972;28;20014;-39
2022/11/03 04:24:31;;;;;;;6.40;0.90;;;26.00;96.30;;;;;;5063893;28;20106;-39
2022/11/03 04:27:04;;;;;;;3.08;0.75;;;26.00;96.30;;;;;;5063935;28;20036;-44
2022/11/03 04:29:31;;;;;;;4.82;1.15;;;26.00;96.30;;;;;;5063683;28;20316;-41
2022/11/03 04:31:57;;;;;;;3.75;0.88;;;26.00;96.30;;;;;;5045661;28;20025;-45
2022/11/03 04:34:24;;;;;;;3.30;0.80;;;26.00;96.50;;;;;;5043696;28;20408;-46
2022/11/03 04:36:51;;;;;;;1.65;0.70;;;26.00;96.30;;;;;;5043893;28;20297;-50
2022/11/03 04:39:20;;;;;;;2.85;0.70;;;26.00;96.30;;;;;;5043906;28;20030;-47
2022/11/03 04:41:47;;;;;;;1.38;0.50;;;26.00;96.30;;;;;;5043558;28;20064;-44
2022/11/03 04:44:15;;;;;;;3.15;0.57;;;26.00;96.30;;;;;;5043652;28;20021;-44
2022/11/03 04:46:45;;;;;;;1.95;0.50;;;26.00;96.30;;;;;;5051947;28;20045;-44
2022/11/03 04:49:20;;;;;;;3.72;0.60;;;26.00;96.30;;;;;;5065912;28;20093;-46
2022/11/03 04:51:47;;;;;;;3.53;0.43;;;26.00;96.30;;;;;;5067796;28;20040;-44
2022/11/03 04:54:23;;;;;;;2.05;0.60;;;26.00;96.30;;;;;;5067607;28;20059;-44
2022/11/03 04:56:49;;;;;;;4.00;0.70;;;26.00;96.30;;;;;;5067784;28;20043;-40
2022/11/03 04:59:16;;;;;;;1.08;0.32;;;26.00;96.30;;;;;;5067849;28;20032;-43
2022/11/03 05:01:44;;;;;;;3.88;0.73;;;26.00;96.30;;;;;;5050394;28;20347;-41
2022/11/03 05:04:17;;;;;;;2.30;0.40;;;26.00;96.30;;;;;;5047434;28;20025;-47
2022/11/03 05:06:51;;;;;;;3.42;0.60;;;26.00;96.40;;;;;;5047244;28;20100;-43
2022/11/03 05:09:29;;;;;;;3.72;0.60;;;25.90;96.30;;;;;;5047259;28;20217;-38
2022/11/03 05:11:56;;;;;;;1.88;0.52;;;25.90;96.40;;;;;;5047441;28;20108;-44
2022/11/03 05:14:26;;;;;;;2.63;0.40;;;25.90;96.40;;;;;;5047062;28;20190;-46
2022/11/03 05:16:54;;;;;;;4.05;0.77;;;25.90;96.30;;;;;;5047416;28;20309;-41
2022/11/03 05:19:29;;;;;;;2.17;0.38;;;25.90;96.40;;;;;;5047133;28;20018;-39
2022/11/03 05:21:59;;;;;;;1.90;0.40;;;25.90;96.40;;;;;;5047282;28;20033;-42
2022/11/03 05:24:26;;;;;;;4.30;0.57;;;25.90;96.40;;;;;;5047091;28;20053;-48
2022/11/03 05:26:55;;;;;;;5.63;0.60;;;25.90;96.30;;;;;;5046691;28;20043;-45
2022/11/03 05:29:26;;;;;;;4.28;0.52;;;25.90;96.30;;;;;;5047001;28;20025;-40
2022/11/03 05:31:55;;;;;;;3.07;0.50;;;25.90;96.40;;;;;;5047201;28;20022;-40
2022/11/03 05:34:31;;;;;;;5.57;0.57;;;25.90;96.40;;;;;;5046665;28;20327;-37
2022/11/03 05:37:26;;;;;;;0.80;0.40;;;25.90;96.40;;;;;;5046739;28;20045;-43
2022/11/03 05:39:57;;;;;;;1.73;0.50;;;25.90;96.30;;;;;;5046965;28;20333;-38
2022/11/03 05:42:36;;;;;;;2.92;0.45;;;25.90;96.40;;;;;;5047049;28;20088;-36
2022/11/03 05:45:14;;;;;;;2.17;0.55;;;25.90;96.40;;;;;;5046713;28;20101;-44
2022/11/03 05:47:41;;;;;;;3.78;0.65;;;25.90;96.40;;;;;;5047011;28;20186;-38
2022/11/03 05:50:28;;;;;;;2.53;0.50;;;25.90;96.40;;;;;;5046464;28;20096;-39
2022/11/03 05:53:20;;;;;;;3.00;0.68;;;25.90;96.40;;;;;;5047002;28;20300;-49
2022/11/03 05:55:47;;;;;;;3.33;0.35;;;25.90;96.40;;;;;;5046531;28;20048;-42
2022/11/03 05:58:25;;;;;;;1.15;0.38;;;25.90;96.40;;;;;;5046739;28;20029;-38
2022/11/03 06:00:53;;;;;;;5.00;0.50;;;25.90;96.40;;;;;;5045853;28;20086;-44
2022/11/03 06:03:30;;;;;;;1.92;0.50;;;25.90;96.40;;;;;;5046605;28;20071;-38
2022/11/03 06:05:59;;;;;;;3.78;0.40;;;25.90;96.60;;;;;;5046099;28;20029;-37
2022/11/03 06:08:35;;;;;;;4.10;0.60;;;25.90;96.40;;;;;;5046372;28;20052;-38
2022/11/03 06:11:03;;;;;;;5.13;0.60;;;25.90;96.40;;;;;;5046201;28;20029;-38
2022/11/03 06:13:34;;;;;;;5.53;0.63;;;25.90;96.40;;;;;;5046173;28;20034;-47
2022/11/03 06:16:17;;;;;;;3.08;0.40;;;25.90;96.40;;;;;;5046285;28;20022;-43
2022/11/03 06:18:43;;;;;;;2.83;0.60;;;25.90;96.40;;;;;;5045900;28;20014;-51
2022/11/03 06:21:20;;;;;;;5.07;0.50;;;25.90;96.40;;;;;;5038945;28;20036;-48
2022/11/03 06:23:47;;;;;;;2.95;0.50;;;25.90;96.40;;;;;;5026139;28;20029;-58
2022/11/03 06:26:26;;;;;;;3.17;0.60;;;25.90;96.40;;;;;;5026165;28;20201;-44
2022/11/03 06:28:53;;;;;;;2.78;0.60;;;25.90;96.40;;;;;;5025999;28;20033;-46
2022/11/03 06:31:26;;;;;;;2.63;0.50;;;25.90;96.40;;;;;;5026178;28;20053;-50
2022/11/03 06:33:53;;;;;;;3.00;0.45;;;25.90;96.40;;;;;;5026122;28;20021;-49
2022/11/03 06:36:22;;;;;;;2.92;0.60;;;25.90;96.40;;;;;;5025958;28;20030;-46
2022/11/03 06:38:56;;;;;;;1.63;0.80;;;25.90;96.40;;;;;;5025899;28;20050;-46
2022/11/03 06:41:26;;;;;;;3.47;0.57;;;25.90;96.40;;;;;;5026204;28;20104;-48
2022/11/03 06:43:53;;;;;;;3.53;0.40;;;25.90;96.40;;;;;;5025865;28;20061;-38
2022/11/03 06:46:24;;;;;;;5.68;0.50;;;25.90;96.40;;;;;;5025712;28;20205;-38
2022/11/03 06:48:53;;;;;;;4.30;0.55;;;25.80;96.40;;;;;;5025948;28;20025;-38
2022/11/03 06:51:23;;;;;;;2.60;0.60;;;25.90;96.40;;;;;;5025588;28;20034;-40
2022/11/03 06:53:52;;;;;;;4.88;0.70;;;25.80;96.40;;;;;;5025600;28;20036;-42
2022/11/03 06:56:22;;;;;;;7.40;0.73;;;25.80;96.40;;;;;;5025579;28;20106;-43
2022/11/03 06:58:51;;;;;;;2.30;0.50;;;25.80;96.40;;;;;;5025432;28;20272;-39
2022/11/03 07:01:20;;;;;;;5.53;0.77;;;25.90;96.50;;;;;;5025657;28;20097;-45
2022/11/03 07:03:51;;;;;;;4.30;0.80;;;25.80;96.40;;;;;;5025203;28;20038;-40
2022/11/03 07:06:23;;;;;;;6.45;0.50;;;25.80;96.50;;;;;;5025416;28;20022;-44
2022/11/03 07:09:00;;;;;;;2.90;0.50;;;25.80;96.50;;;;;;5025312;28;20092;-38
2022/11/03 07:11:29;;;;;;;2.45;0.50;;;25.80;96.50;;;;;;5024566;28;20102;-44
2022/11/03 07:13:58;;;;;;;4.18;0.80;;;25.80;96.50;;;;;;5025267;28;20436;-50
2022/11/03 07:16:24;;;;;;;2.53;0.40;;;25.80;96.50;;;;;;5025214;28;20030;-39
2022/11/03 07:18:51;;;;;;;5.28;0.90;;;25.80;96.60;;;;;;5025296;28;20057;-44
2022/11/03 07:21:40;;;;;;;3.05;0.60;;;25.80;96.60;;;;;;5025313;28;20042;-42
2022/11/03 07:24:21;;;;;;;6.43;0.82;;;25.80;96.60;;;;;;5025002;28;20021;-47
2022/11/03 07:27:09;;;;;;;5.50;0.68;;;25.80;96.80;;;;;;5024987;28;20061;-53
2022/11/03 07:29:35;;;;;;;4.82;0.73;;;25.80;96.60;;;;;;5024898;28;20049;-40
2022/11/03 07:32:08;;;;;;;3.55;0.63;;;25.80;96.60;;;;;;5025691;28;20034;-45
2022/11/03 07:34:35;;;;;;;4.78;1.02;;;25.80;96.60;;;;;;5025244;28;20265;-44
2022/11/03 07:37:01;;;;;;;3.45;0.80;;;25.80;96.70;;;;;;5024847;28;20050;-39
2022/11/03 07:39:36;;;;;;;4.30;0.57;;;25.80;96.70;;;;;;5024905;28;20267;-38
2022/11/03 07:42:16;;;;;;;8.85;0.77;;;25.80;96.70;;;;;;5025134;28;20038;-41
2022/11/03 07:44:43;;;;;;;6.35;0.65;;;25.80;96.70;;;;;;5024890;28;20028;-38
2022/11/03 07:47:19;;;;;;;4.32;0.60;;;25.80;96.70;;;;;;5024942;28;20038;-39
2022/11/03 07:49:47;;;;;;;5.35;0.73;;;25.80;96.70;;;;;;5024610;28;20183;-46
2022/11/03 07:52:21;;;;;;;3.88;0.60;;;25.80;96.70;;;;;;5024881;28;20229;-42
2022/11/03 07:54:49;;;;;;;2.28;0.60;;;25.80;96.70;;;;;;5024653;28;20032;-41
2022/11/03 07:57:25;;;;;;;4.00;0.65;;;25.80;96.70;;;;;;5024515;28;20037;-38
2022/11/03 07:59:56;;;;;;;6.35;0.60;;;25.80;96.70;;;;;;5024426;28;20026;-40
2022/11/03 08:02:40;;;;;;;3.33;0.52;;;25.80;96.70;;;;;;5024982;28;20034;-41
2022/11/03 08:05:07;;;;;;;2.22;0.60;;;25.80;96.70;;;;;;5024533;28;20088;-43
2022/11/03 08:07:34;;;;;;;5.00;0.95;;;25.70;96.60;;;;;;5024627;28;20030;-40
2022/11/03 08:10:01;;;;;;;4.88;0.88;;;25.70;96.60;;;;;;5024238;28;20026;-43
2022/11/03 08:12:27;;;;;;;3.65;0.60;;;25.80;96.60;;;;;;5024889;28;20021;-40
2022/11/03 08:14:54;;;;;;;4.47;0.85;;;25.70;96.60;;;;;;5024195;28;20182;-45
2022/11/03 08:17:20;;;;;;;1.73;0.50;;;25.70;96.60;;;;;;5024769;28;20084;-48
2022/11/03 08:19:47;;;;;;;4.53;0.60;;;25.70;96.60;;;;;;5024285;28;20017;-37
2022/11/03 08:22:14;;;;;;;5.50;0.70;;;25.70;96.60;;;;;;5024347;28;20117;-47
2022/11/03 08:24:40;;;;;;;3.90;0.47;;;25.70;96.60;;;;;;5024154;28;20241;-41
2022/11/03 08:27:07;;;;;;;3.58;0.60;;;25.70;96.60;;;;;;5024317;28;20034;-48
2022/11/03 08:29:33;;;;;;;3.05;0.75;;;25.80;96.70;;;;;;5024147;28;20061;-43
2022/11/03 08:32:00;;;;;;;3.67;0.80;;;25.70;96.60;;;;;;5024359;28;20044;-40
2022/11/03 08:34:26;;;;;;;5.03;0.60;;;25.70;96.60;;;;;;5023918;28;20318;-41
2022/11/03 08:36:53;;;;;;;2.38;0.60;;;25.70;96.70;;;;;;5023934;28;20132;-40
2022/11/03 08:39:19;;;;;;;5.07;0.73;;;25.70;96.70;;;;;;5024249;28;20034;-38
2022/11/03 08:41:46;;;;;;;2.70;0.57;;;25.70;96.70;;;;;;5024115;28;20033;-39
2022/11/03 08:44:12;;;;;;;2.40;0.60;;;25.70;96.70;;;;;;5023994;28;20092;-42
2022/11/03 08:46:39;;;;;;;5.22;0.60;;;25.70;96.70;;;;;;5024065;28;20034;-40
2022/11/03 08:49:05;;;;;;;4.57;0.70;;;25.70;96.70;;;;;;5023953;28;20010;-46
2022/11/03 08:51:32;;;;;;;3.80;0.60;;;25.70;96.70;;;;;;5023949;28;20025;-46
2022/11/03 08:53:58;;;;;;;3.38;0.60;;;25.70;96.70;;;;;;5023825;28;20310;-48
2022/11/03 08:56:25;;;;;;;1.42;0.40;;;25.70;96.70;;;;;;5023841;28;20057;-47
2022/11/03 08:58:51;;;;;;;5.78;0.52;;;25.70;96.80;;;;;;5023845;28;20022;-49
2022/11/03 09:01:18;;;;;;;4.32;0.68;;;25.70;96.80;;;;;;5024094;28;20029;-46
2022/11/03 09:03:45;;;;;;;2.28;0.43;;;25.70;96.80;;;;;;5023590;28;20314;-48
2022/11/03 09:06:11;;;;;;;3.00;0.70;;;25.70;96.80;;;;;;5024144;28;20037;-48
2022/11/03 09:08:38;;;;;;;4.43;0.55;;;25.70;96.80;;;;;;5024118;28;20018;-42
2022/11/03 09:11:04;;;;;;;3.13;0.60;;;25.70;96.80;;;;;;5023750;28;20026;-45
2022/11/03 09:13:31;;;;;;;3.17;0.70;;;25.70;96.80;;;;;;5023808;28;20073;-38
2022/11/03 09:15:57;;;;;;;5.10;0.70;;;25.70;96.80;;;;;;5023666;28;20029;-49
2022/11/03 09:18:24;;;;;;;2.80;0.70;;;25.70;96.80;;;;;;5023557;28;20060;-41
2022/11/03 09:20:50;;;;;;;4.35;0.90;;;25.70;96.80;;;;;;5023934;28;20029;-43
2022/11/03 09:23:17;;;;;;;6.00;0.80;;;25.70;96.80;;;;;;5023766;28;20268;-44
2022/11/03 09:25:44;;;;;;;4.07;0.80;;;25.70;96.80;;;;;;5023657;28;20060;-48
2022/11/03 09:28:10;;;;;;;8.55;0.85;;;25.70;96.80;;;;;;5023269;28;20022;-39
2022/11/03 09:30:37;;;;;;;4.72;0.75;;;25.70;96.80;;;;;;5023814;28;20032;-49
2022/11/03 09:33:03;;;;;;;1.85;0.50;;;25.70;96.80;;;;;;5024002;28;20026;-39
2022/11/03 09:35:30;;;;;;;4.88;0.70;;;25.70;96.80;;;;;;5026053;28;20385;-45
2022/11/03 09:37:56;;;;;;;3.30;0.70;;;25.70;96.80;;;;;;5027140;28;20109;-45
2022/11/03 09:40:24;;;;;;;3.20;0.60;;;25.70;96.80;;;;;;5027445;28;20026;-45
2022/11/03 09:42:51;;;;;;;3.78;0.80;;;25.70;96.80;;;;;;5027265;28;20042;-43
2022/11/03 09:45:17;;;;;;;1.50;0.50;;;25.70;96.80;;;;;;5026831;28;20321;-47
2022/11/03 09:47:46;;;;;;;3.88;0.80;;;25.70;96.70;;;;;;5027449;28;20065;-48
2022/11/03 09:50:18;;;;;;;4.25;0.80;;;25.70;96.70;;;;;;5026789;28;20018;-45
2022/11/03 09:52:45;;;;;;;3.60;0.55;;;25.70;96.80;;;;;;5027120;28;20089;-43
2022/11/03 09:55:33;;;;;;;4.40;0.80;;;25.70;96.80;;;;;;5027099;28;20026;-42
2022/11/03 09:58:08;;;;;;;3.63;0.88;;;25.70;96.80;;;;;;5026936;28;20057;-41
2022/11/03 10:00:34;;;;;;;5.65;0.90;;;25.70;96.80;;;;;;5026362;28;20222;-49
2022/11/03 10:03:03;;;;;;;7.88;1.25;;;25.70;96.80;;;;;;5026990;28;20042;-44
2022/11/03 10:05:30;;;;;;;4.50;1.10;;;25.70;96.80;;;;;;5026479;28;20025;-43
2022/11/03 10:08:00;;;;;;;5.47;0.88;;;25.70;96.80;;;;;;5026613;28;20038;-38
2022/11/03 10:10:27;;;;;;;3.95;1.08;;;25.70;96.80;;;;;;5026414;28;20025;-43
2022/11/03 10:12:54;;;;;;;5.53;1.42;;;25.70;96.80;;;;;;5026970;28;20364;-39
2022/11/03 10:15:23;;;;;;;5.28;0.93;;;25.70;96.80;;;;;;5026393;28;20218;-45
2022/11/03 10:17:50;;;;;;;5.45;1.23;;;25.70;96.80;;;;;;5026858;28;20022;-41
2022/11/03 10:20:19;;;;;;;3.90;1.00;;;25.70;96.80;;;;;;5026254;28;20064;-46
2022/11/03 10:22:47;;;;;;;3.17;0.90;;;25.70;96.80;;;;;;5026534;28;20217;-42
2022/11/03 10:25:36;;;;;;;7.18;1.20;;;25.70;96.80;;;;;;5026145;28;20069;-39
2022/11/03 10:28:27;;;;;;;2.58;1.00;;;25.70;96.80;;;;;;5026042;28;20034;-41
2022/11/03 10:30:56;;;;;;;7.55;1.17;;;25.70;96.80;;;;;;5026111;28;20034;-46
2022/11/03 10:33:37;;;;;;;5.07;1.20;;;25.70;96.70;;;;;;5025839;28;20026;-39
2022/11/03 10:36:15;;;;;;;5.40;1.10;;;25.60;96.80;;;;;;5026133;28;20026;-42
2022/11/03 10:38:44;;;;;;;3.20;0.90;;;25.70;96.80;;;;;;5025568;28;20276;-39
2022/11/03 10:41:17;;;;;;;6.80;1.13;;;25.70;96.90;;;;;;5025912;28;20026;-44
2022/11/03 10:43:59;;;;;;;5.85;0.90;;;25.70;96.90;;;;;;5025722;28;20029;-47
2022/11/03 10:46:26;;;;;;;5.47;0.93;;;25.60;96.90;;;;;;5025665;28;20033;-48
2022/11/03 10:49:14;;;;;;;4.78;0.90;;;25.70;96.90;;;;;;5025745;28;20199;-46
2022/11/03 10:51:43;;;;;;;6.78;1.00;;;25.70;96.90;;;;;;5025845;28;20390;-39
2022/11/03 10:54:17;;;;;;;6.53;0.77;;;25.70;97.00;;;;;;5025877;28;20385;-45
2022/11/03 10:56:45;;;;;;;4.88;0.90;;;25.70;96.90;;;;;;5025739;28;20041;-41
2022/11/03 10:59:19;;;;;;;8.05;0.90;;;25.70;96.90;;;;;;5025473;28;20021;-40
2022/11/03 11:01:46;;;;;;;3.00;0.80;;;25.60;96.90;;;;;;5025589;28;20101;-44
2022/11/03 11:04:17;;;;;;;3.08;0.80;;;25.70;96.90;;;;;;5039432;28;20037;-44
2022/11/03 11:06:45;;;;;;;5.43;0.82;;;25.70;96.90;;;;;;5045207;28;20052;-39
2022/11/03 11:09:26;;;;;;;3.45;0.73;;;25.60;96.90;;;;;;5045185;28;20037;-43
2022/11/03 11:12:04;;;;;;;2.15;0.60;;;25.70;96.90;;;;;;5045009;28;20103;-39
2022/11/03 11:14:33;;;;;;;5.47;0.60;;;25.70;96.80;;;;;;5044856;28;20068;-38
2022/11/03 11:17:01;;;;;;;3.85;0.80;;;25.70;96.80;;;;;;5045121;28;20245;-39
2022/11/03 11:19:29;;;;;;;3.35;0.55;;;25.60;96.70;;;;;;5044770;28;20048;-40
2022/11/03 11:21:56;;;;;;;5.32;0.50;;;25.60;96.60;;;;;;5045048;28;20041;-40
2022/11/03 11:24:44;;;;;;;3.30;0.73;;;25.50;96.70;;;;;;5044062;28;20064;-44
2022/11/03 11:27:31;;;;;;;6.75;0.70;;;25.60;96.70;;;;;;5044888;28;20025;-43
2022/11/03 11:29:59;;;;;;;3.83;0.50;;;25.60;96.60;;;;;;5044778;28;20025;-43
2022/11/03 11:32:43;;;;;;;2.22;0.50;;;25.60;96.60;;;;;;5045293;28;20045;-42
2022/11/03 11:35:14;;;;;;;3.63;0.52;;;25.60;96.60;;;;;;5044938;28;20045;-49
2022/11/03 11:37:42;;;;;;;5.22;0.50;;;25.60;96.50;;;;;;5044645;28;20057;-49
2022/11/03 11:40:15;;;;;;;2.47;0.50;;;25.60;96.50;;;;;;5044189;28;20018;-47
2022/11/03 11:43:12;;;;;;;3.88;0.57;;;25.60;96.50;;;;;;5044658;28;20026;-41
2022/11/03 11:46:15;;;;;;;3.15;0.60;;;25.60;96.60;;;;;;5044338;28;20025;-42
2022/11/03 11:48:42;;;;;;;3.08;0.57;;;25.60;96.60;;;;;;5044481;28;20045;-44
2022/11/03 11:51:10;;;;;;;5.30;0.77;;;25.60;96.70;;;;;;5044162;28;20029;-45
2022/11/03 11:53:42;;;;;;;4.50;0.60;;;25.60;96.70;;;;;;5044408;28;20176;-45
2022/11/03 11:56:15;;;;;;;2.78;0.32;;;25.60;96.70;;;;;;5044156;28;20092;-44
2022/11/03 11:58:41;;;;;;;4.55;0.57;;;25.60;96.80;;;;;;5043724;28;20029;-45
2022/11/03 12:01:22;;;;;;;1.60;0.45;;;25.60;96.80;;;;;;5044293;28;20040;-44
2022/11/03 12:03:51;;;;;;;2.22;0.50;;;25.60;96.80;;;;;;5044007;28;20053;-41
2022/11/03 12:06:35;;;;;;;4.97;1.00;;;25.70;96.90;;;;;;5044251;28;20048;-42
2022/11/03 12:09:19;;;;;;;1.92;0.55;;;25.70;96.80;;;;;;5044039;28;20055;-41
2022/11/03 12:11:49;;;;;;;2.72;0.50;;;25.60;96.80;;;;;;5044309;28;20265;-41
2022/11/03 12:14:22;;;;;;;3.28;0.40;;;25.70;96.80;;;;;;5043832;28;20367;-42
2022/11/03 12:16:49;;;;;;;3.53;0.45;;;25.70;96.80;;;;;;5044359;28;20057;-52
2022/11/03 12:19:38;;;;;;;1.10;0.30;;;25.70;96.70;;;;;;5043914;28;20078;-48
2022/11/03 12:22:26;;;;;;;2.95;0.47;;;25.70;96.70;;;;;;5044525;28;20067;-48
2022/11/03 12:25:03;;;;;;;1.08;0.20;;;25.70;96.80;;;;;;5033814;28;20244;-41
2022/11/03 12:27:30;;;;;;;0.65;0.10;;;25.70;96.70;;;;;;5044686;28;20126;-41
2022/11/03 12:29:59;;;;;;;1.30;0.30;;;25.70;96.70;;;;;;5043725;28;20033;-42
2022/11/03 12:32:27;;;;;;;0.75;0.20;;;25.70;96.70;;;;;;5044656;28;20096;-49
2022/11/03 12:34:55;;;;;;;0.85;0.20;;;25.70;96.70;;;;;;5043981;28;20057;-41
2022/11/03 12:37:22;;;;;;;0.70;0.20;;;25.80;96.80;;;;;;5043904;28;20120;-45
2022/11/03 12:39:48;;;;;;;0.90;0.20;;;25.70;96.70;;;;;;5044461;28;20067;-41
2022/11/03 12:42:15;;;;;;;2.53;0.25;;;25.80;96.80;;;;;;5044182;28;20071;-47
2022/11/03 12:44:41;;;;;;;0.70;0.10;;;25.80;96.70;;;;;;5043869;28;20017;-48
2022/11/03 12:47:08;;;;;;;1.75;0.10;;;25.80;96.70;;;;;;5043757;28;20049;-48
2022/11/03 12:49:35;;;;;;;1.38;0.10;;;25.80;96.60;;;;;;5043756;28;20301;-47
2022/11/03 12:52:05;;;;;;;0.40;0.10;;;25.80;96.50;;;;;;5044215;28;20033;-44
2022/11/03 12:54:33;;;;;;;0.52;0.10;;;25.80;96.40;;;;;;5043971;28;20024;-50
2022/11/03 12:56:59;;;;;;;1.55;0.10;;;25.90;96.40;;;;;;5043633;28;20112;-41
2022/11/03 12:59:26;;;;;;;2.25;0.22;;;25.90;96.30;;;;;;5043744;28;20022;-37
2022/11/03 13:01:53;;;;;;;0.80;0.30;;;25.90;96.40;;;;;;5044255;28;20398;-43
2022/11/03 13:04:19;;;;;;;1.38;0.28;;;25.90;96.30;;;;;;5043906;28;20100;-39
2022/11/03 13:06:49;;;;;;;2.05;0.20;;;25.90;96.20;;;;;;5043702;28;20209;-46
2022/11/03 13:09:15;;;;;;;0.60;0.17;;;25.90;96.20;;;;;;5045009;28;20045;-40
2022/11/03 13:14:26;;;;;;;1.15;0.40;;;25.90;96.10;;;;;;5047477;28;20161;-45
2022/11/03 13:16:53;;;;;;;3.03;0.30;;;25.80;96.10;;;;;;5047621;28;20037;-42
2022/11/03 13:19:19;;;;;;;1.73;0.20;;;25.80;96.00;;;;;;5047319;28;20025;-41
2022/11/03 13:21:46;;;;;;;0.32;0.20;;;25.80;96.00;;;;;;5047651;28;20053;-41
2022/11/03 13:24:12;;;;;;;2.03;0.20;;;25.90;96.00;;;;;;5047189;28;20332;-40
2022/11/03 13:26:39;;;;;;;1.95;0.20;;;25.90;96.00;;;;;;5047925;28;20357;-44